sensor_id;sensor_type;location;lat;lon;timestamp;P1;durP1;ratioP1;P2;durP2;ratioP2
13989;SDS011;7069;52.528;13.316;2023-02-01T00:00:50;16.07;;;3.67;;
13989;SDS011;7069;52.528;13.316;2023-02-01T00:03:17;14.80;;;4.47;;
13989;SDS011;7069;52.528;13.316;2023-02-01T00:05:43;22.73;;;4.37;;
13989;SDS011;7069;52.528;13.316;2023-02-01T00:08:10;14.17;;;4.00;;
13989;SDS011;7069;52.528;13.316;2023-02-01T00:10:36;14.70;;;4.17;;
13989;SDS011;7069;52.528;13.316;2023-02-01T00:13:03;20.27;;;3.60;;
13989;SDS011;7069;52.528;13.316;2023-02-01T00:15:30;15.53;;;4.33;;
13989;SDS011;7069;52.528;13.316;2023-02-01T00:17:58;15.30;;;4.37;;
13989;SDS011;7069;52.528;13.316;2023-02-01T00:20:24;11.83;;;3.13;;
13989;SDS011;7069;52.528;13.316;2023-02-01T00:22:51;8.93;;;4.30;;
13989;SDS011;7069;52.528;13.316;2023-02-01T00:25:17;12.90;;;3.23;;
13989;SDS011;7069;52.528;13.316;2023-02-01T00:27:47;13.23;;;3.00;;
13989;SDS011;7069;52.528;13.316;2023-02-01T00:30:14;13.27;;;2.73;;
13989;SDS011;7069;52.528;13.316;2023-02-01T00:32:42;19.07;;;3.40;;
13989;SDS011;7069;52.528;13.316;2023-02-01T00:35:08;11.43;;;2.97;;
13989;SDS011;7069;52.528;13.316;2023-02-01T00:37:35;10.50;;;3.00;;
13989;SDS011;7069;52.528;13.316;2023-02-01T00:40:01;10.10;;;3.40;;
13989;SDS011;7069;52.528;13.316;2023-02-01T00:42:27;11.20;;;3.13;;
13989;SDS011;7069;52.528;13.316;2023-02-01T00:44:54;11.90;;;4.10;;
13989;SDS011;7069;52.528;13.316;2023-02-01T00:47:20;12.33;;;4.00;;
13989;SDS011;7069;52.528;13.316;2023-02-01T00:49:48;8.53;;;2.57;;
13989;SDS011;7069;52.528;13.316;2023-02-01T00:52:14;7.93;;;3.50;;
13989;SDS011;7069;52.528;13.316;2023-02-01T00:54:40;9.33;;;2.17;;
13989;SDS011;7069;52.528;13.316;2023-02-01T00:57:07;8.70;;;2.93;;
13989;SDS011;7069;52.528;13.316;2023-02-01T00:59:33;9.53;;;2.53;;
13989;SDS011;7069;52.528;13.316;2023-02-01T01:01:59;11.37;;;3.23;;
13989;SDS011;7069;52.528;13.316;2023-02-01T01:04:26;10.83;;;3.50;;
13989;SDS011;7069;52.528;13.316;2023-02-01T01:06:54;14.53;;;2.70;;
13989;SDS011;7069;52.528;13.316;2023-02-01T01:09:20;11.23;;;3.10;;
13989;SDS011;7069;52.528;13.316;2023-02-01T01:11:46;10.93;;;2.50;;
13989;SDS011;7069;52.528;13.316;2023-02-01T01:14:13;4.57;;;1.73;;
13989;SDS011;7069;52.528;13.316;2023-02-01T01:16:40;11.63;;;2.90;;
13989;SDS011;7069;52.528;13.316;2023-02-01T01:19:06;10.10;;;3.27;;
13989;SDS011;7069;52.528;13.316;2023-02-01T01:21:33;9.27;;;2.43;;
13989;SDS011;7069;52.528;13.316;2023-02-01T01:24:01;12.13;;;2.97;;
13989;SDS011;7069;52.528;13.316;2023-02-01T01:26:28;10.20;;;2.57;;
13989;SDS011;7069;52.528;13.316;2023-02-01T01:28:55;17.00;;;5.17;;
13989;SDS011;7069;52.528;13.316;2023-02-01T01:31:22;8.43;;;2.20;;
13989;SDS011;7069;52.528;13.316;2023-02-01T01:33:49;11.30;;;2.33;;
13989;SDS011;7069;52.528;13.316;2023-02-01T01:36:16;10.80;;;2.77;;
13989;SDS011;7069;52.528;13.316;2023-02-01T01:38:43;13.40;;;2.87;;
13989;SDS011;7069;52.528;13.316;2023-02-01T01:41:12;12.40;;;2.77;;
13989;SDS011;7069;52.528;13.316;2023-02-01T01:43:53;9.07;;;2.67;;
13989;SDS011;7069;52.528;13.316;2023-02-01T01:46:20;10.57;;;3.50;;
13989;SDS011;7069;52.528;13.316;2023-02-01T01:48:48;10.87;;;2.53;;
13989;SDS011;7069;52.528;13.316;2023-02-01T01:51:17;6.03;;;2.20;;
13989;SDS011;7069;52.528;13.316;2023-02-01T01:53:45;8.97;;;3.07;;
13989;SDS011;7069;52.528;13.316;2023-02-01T01:56:15;15.47;;;3.47;;
13989;SDS011;7069;52.528;13.316;2023-02-01T01:58:42;15.57;;;3.63;;
13989;SDS011;7069;52.528;13.316;2023-02-01T02:01:09;7.00;;;2.70;;
13989;SDS011;7069;52.528;13.316;2023-02-01T02:03:37;12.17;;;2.70;;
13989;SDS011;7069;52.528;13.316;2023-02-01T02:06:05;13.77;;;2.93;;
13989;SDS011;7069;52.528;13.316;2023-02-01T02:08:39;17.07;;;4.03;;
13989;SDS011;7069;52.528;13.316;2023-02-01T02:11:05;11.40;;;3.90;;
13989;SDS011;7069;52.528;13.316;2023-02-01T02:13:34;6.80;;;2.43;;
13989;SDS011;7069;52.528;13.316;2023-02-01T02:16:05;11.43;;;2.70;;
13989;SDS011;7069;52.528;13.316;2023-02-01T02:18:38;14.77;;;2.73;;
13989;SDS011;7069;52.528;13.316;2023-02-01T02:21:14;10.73;;;2.63;;
13989;SDS011;7069;52.528;13.316;2023-02-01T02:26:32;14.13;;;3.03;;
13989;SDS011;7069;52.528;13.316;2023-02-01T02:29:06;11.13;;;2.97;;
13989;SDS011;7069;52.528;13.316;2023-02-01T02:31:59;11.60;;;3.20;;
13989;SDS011;7069;52.528;13.316;2023-02-01T02:34:31;10.53;;;2.50;;
13989;SDS011;7069;52.528;13.316;2023-02-01T02:37:03;11.03;;;2.77;;
13989;SDS011;7069;52.528;13.316;2023-02-01T02:39:34;12.93;;;3.13;;
13989;SDS011;7069;52.528;13.316;2023-02-01T02:42:06;7.20;;;2.90;;
13989;SDS011;7069;52.528;13.316;2023-02-01T02:44:54;15.43;;;4.23;;
13989;SDS011;7069;52.528;13.316;2023-02-01T02:47:41;17.73;;;2.80;;
13989;SDS011;7069;52.528;13.316;2023-02-01T02:50:13;15.27;;;4.10;;
13989;SDS011;7069;52.528;13.316;2023-02-01T02:53:00;13.70;;;3.43;;
13989;SDS011;7069;52.528;13.316;2023-02-01T02:55:45;13.73;;;3.40;;
13989;SDS011;7069;52.528;13.316;2023-02-01T02:58:11;11.77;;;3.13;;
13989;SDS011;7069;52.528;13.316;2023-02-01T03:00:56;8.90;;;2.13;;
13989;SDS011;7069;52.528;13.316;2023-02-01T03:03:40;9.80;;;3.03;;
13989;SDS011;7069;52.528;13.316;2023-02-01T03:06:26;9.67;;;2.80;;
13989;SDS011;7069;52.528;13.316;2023-02-01T03:08:53;19.47;;;3.47;;
13989;SDS011;7069;52.528;13.316;2023-02-01T03:11:22;13.47;;;3.87;;
13989;SDS011;7069;52.528;13.316;2023-02-01T03:14:09;13.30;;;2.77;;
13989;SDS011;7069;52.528;13.316;2023-02-01T03:16:36;12.43;;;3.13;;
13989;SDS011;7069;52.528;13.316;2023-02-01T03:19:08;13.93;;;3.13;;
13989;SDS011;7069;52.528;13.316;2023-02-01T03:21:37;13.87;;;3.07;;
13989;SDS011;7069;52.528;13.316;2023-02-01T03:24:07;15.00;;;4.20;;
13989;SDS011;7069;52.528;13.316;2023-02-01T03:26:36;12.00;;;3.57;;
13989;SDS011;7069;52.528;13.316;2023-02-01T03:29:05;18.90;;;4.90;;
13989;SDS011;7069;52.528;13.316;2023-02-01T03:31:34;10.37;;;3.10;;
13989;SDS011;7069;52.528;13.316;2023-02-01T03:34:01;10.33;;;3.37;;
13989;SDS011;7069;52.528;13.316;2023-02-01T03:36:29;14.93;;;3.27;;
13989;SDS011;7069;52.528;13.316;2023-02-01T03:39:00;15.53;;;3.27;;
13989;SDS011;7069;52.528;13.316;2023-02-01T03:41:31;11.37;;;3.47;;
13989;SDS011;7069;52.528;13.316;2023-02-01T03:44:01;14.57;;;3.57;;
13989;SDS011;7069;52.528;13.316;2023-02-01T03:46:31;16.30;;;2.97;;
13989;SDS011;7069;52.528;13.316;2023-02-01T03:48:59;15.93;;;4.03;;
13989;SDS011;7069;52.528;13.316;2023-02-01T03:51:26;9.60;;;2.93;;
13989;SDS011;7069;52.528;13.316;2023-02-01T03:53:53;9.57;;;2.30;;
13989;SDS011;7069;52.528;13.316;2023-02-01T03:56:22;11.10;;;2.47;;
13989;SDS011;7069;52.528;13.316;2023-02-01T03:58:49;14.07;;;3.07;;
13989;SDS011;7069;52.528;13.316;2023-02-01T04:01:24;10.23;;;3.47;;
13989;SDS011;7069;52.528;13.316;2023-02-01T04:03:51;11.80;;;3.53;;
13989;SDS011;7069;52.528;13.316;2023-02-01T04:06:18;17.27;;;4.43;;
13989;SDS011;7069;52.528;13.316;2023-02-01T04:08:44;13.17;;;3.67;;
13989;SDS011;7069;52.528;13.316;2023-02-01T04:11:11;14.50;;;4.17;;
13989;SDS011;7069;52.528;13.316;2023-02-01T04:13:39;16.83;;;3.57;;
13989;SDS011;7069;52.528;13.316;2023-02-01T04:16:05;16.83;;;3.33;;
13989;SDS011;7069;52.528;13.316;2023-02-01T04:18:32;15.47;;;3.47;;
13989;SDS011;7069;52.528;13.316;2023-02-01T04:20:58;10.07;;;3.17;;
13989;SDS011;7069;52.528;13.316;2023-02-01T04:23:26;11.63;;;3.23;;
13989;SDS011;7069;52.528;13.316;2023-02-01T04:25:52;20.00;;;3.30;;
13989;SDS011;7069;52.528;13.316;2023-02-01T04:28:19;18.67;;;3.10;;
13989;SDS011;7069;52.528;13.316;2023-02-01T04:30:46;11.67;;;2.80;;
13989;SDS011;7069;52.528;13.316;2023-02-01T04:33:13;17.77;;;4.33;;
13989;SDS011;7069;52.528;13.316;2023-02-01T04:35:40;10.20;;;3.47;;
13989;SDS011;7069;52.528;13.316;2023-02-01T04:38:06;15.77;;;2.87;;
13989;SDS011;7069;52.528;13.316;2023-02-01T04:40:33;17.13;;;3.13;;
13989;SDS011;7069;52.528;13.316;2023-02-01T04:43:00;14.40;;;2.60;;
13989;SDS011;7069;52.528;13.316;2023-02-01T04:45:26;14.40;;;3.53;;
13989;SDS011;7069;52.528;13.316;2023-02-01T04:47:54;12.50;;;2.90;;
13989;SDS011;7069;52.528;13.316;2023-02-01T04:50:21;12.43;;;3.53;;
13989;SDS011;7069;52.528;13.316;2023-02-01T04:52:48;14.13;;;3.97;;
13989;SDS011;7069;52.528;13.316;2023-02-01T04:55:15;13.33;;;4.20;;
13989;SDS011;7069;52.528;13.316;2023-02-01T04:57:42;11.97;;;3.20;;
13989;SDS011;7069;52.528;13.316;2023-02-01T05:00:09;19.37;;;3.83;;
13989;SDS011;7069;52.528;13.316;2023-02-01T05:02:36;14.40;;;3.83;;
13989;SDS011;7069;52.528;13.316;2023-02-01T05:05:04;14.90;;;3.20;;
13989;SDS011;7069;52.528;13.316;2023-02-01T05:07:31;17.90;;;5.13;;
13989;SDS011;7069;52.528;13.316;2023-02-01T05:09:57;11.30;;;2.93;;
13989;SDS011;7069;52.528;13.316;2023-02-01T05:12:24;12.73;;;3.50;;
13989;SDS011;7069;52.528;13.316;2023-02-01T05:15:08;8.67;;;2.77;;
13989;SDS011;7069;52.528;13.316;2023-02-01T05:17:34;10.90;;;2.93;;
13989;SDS011;7069;52.528;13.316;2023-02-01T05:20:01;10.50;;;4.27;;
13989;SDS011;7069;52.528;13.316;2023-02-01T05:22:29;11.97;;;3.70;;
13989;SDS011;7069;52.528;13.316;2023-02-01T05:24:55;17.03;;;4.03;;
13989;SDS011;7069;52.528;13.316;2023-02-01T05:27:22;13.33;;;3.60;;
13989;SDS011;7069;52.528;13.316;2023-02-01T05:29:48;16.07;;;3.77;;
13989;SDS011;7069;52.528;13.316;2023-02-01T05:32:15;15.43;;;4.07;;
13989;SDS011;7069;52.528;13.316;2023-02-01T05:34:41;8.03;;;3.03;;
13989;SDS011;7069;52.528;13.316;2023-02-01T05:37:08;11.67;;;4.80;;
13989;SDS011;7069;52.528;13.316;2023-02-01T05:39:36;7.97;;;3.00;;
13989;SDS011;7069;52.528;13.316;2023-02-01T05:42:03;16.50;;;3.60;;
13989;SDS011;7069;52.528;13.316;2023-02-01T05:44:29;8.07;;;2.60;;
13989;SDS011;7069;52.528;13.316;2023-02-01T05:46:56;13.40;;;3.37;;
13989;SDS011;7069;52.528;13.316;2023-02-01T05:49:22;12.67;;;3.27;;
13989;SDS011;7069;52.528;13.316;2023-02-01T05:51:49;12.50;;;4.40;;
13989;SDS011;7069;52.528;13.316;2023-02-01T05:54:15;13.13;;;4.00;;
13989;SDS011;7069;52.528;13.316;2023-02-01T05:56:43;17.30;;;4.23;;
13989;SDS011;7069;52.528;13.316;2023-02-01T05:59:10;13.77;;;3.13;;
13989;SDS011;7069;52.528;13.316;2023-02-01T06:01:36;14.17;;;3.80;;
13989;SDS011;7069;52.528;13.316;2023-02-01T06:04:03;17.50;;;2.93;;
13989;SDS011;7069;52.528;13.316;2023-02-01T06:06:30;12.53;;;3.40;;
13989;SDS011;7069;52.528;13.316;2023-02-01T06:08:56;15.40;;;3.90;;
13989;SDS011;7069;52.528;13.316;2023-02-01T06:11:23;16.20;;;2.87;;
13989;SDS011;7069;52.528;13.316;2023-02-01T06:13:52;15.73;;;3.97;;
13989;SDS011;7069;52.528;13.316;2023-02-01T06:16:19;22.83;;;4.77;;
13989;SDS011;7069;52.528;13.316;2023-02-01T06:18:45;12.30;;;3.70;;
13989;SDS011;7069;52.528;13.316;2023-02-01T06:21:12;17.20;;;3.47;;
13989;SDS011;7069;52.528;13.316;2023-02-01T06:23:48;16.23;;;3.70;;
13989;SDS011;7069;52.528;13.316;2023-02-01T06:26:15;7.57;;;2.57;;
13989;SDS011;7069;52.528;13.316;2023-02-01T06:28:42;17.93;;;5.30;;
13989;SDS011;7069;52.528;13.316;2023-02-01T06:31:10;15.13;;;3.50;;
13989;SDS011;7069;52.528;13.316;2023-02-01T06:33:37;8.50;;;3.23;;
13989;SDS011;7069;52.528;13.316;2023-02-01T06:36:04;12.17;;;3.37;;
13989;SDS011;7069;52.528;13.316;2023-02-01T06:38:31;16.17;;;3.47;;
13989;SDS011;7069;52.528;13.316;2023-02-01T06:41:00;10.13;;;3.37;;
13989;SDS011;7069;52.528;13.316;2023-02-01T06:43:27;10.67;;;3.20;;
13989;SDS011;7069;52.528;13.316;2023-02-01T06:45:58;10.80;;;3.17;;
13989;SDS011;7069;52.528;13.316;2023-02-01T06:48:26;15.77;;;4.60;;
13989;SDS011;7069;52.528;13.316;2023-02-01T06:50:53;9.27;;;3.67;;
13989;SDS011;7069;52.528;13.316;2023-02-01T06:53:19;14.50;;;4.00;;
13989;SDS011;7069;52.528;13.316;2023-02-01T06:55:52;11.63;;;2.97;;
13989;SDS011;7069;52.528;13.316;2023-02-01T06:58:19;10.87;;;3.77;;
13989;SDS011;7069;52.528;13.316;2023-02-01T07:00:45;13.20;;;3.93;;
13989;SDS011;7069;52.528;13.316;2023-02-01T07:03:12;7.83;;;3.30;;
13989;SDS011;7069;52.528;13.316;2023-02-01T07:05:40;12.83;;;3.17;;
13989;SDS011;7069;52.528;13.316;2023-02-01T07:08:06;9.23;;;3.27;;
13989;SDS011;7069;52.528;13.316;2023-02-01T07:10:33;12.30;;;4.07;;
13989;SDS011;7069;52.528;13.316;2023-02-01T07:13:00;17.10;;;3.47;;
13989;SDS011;7069;52.528;13.316;2023-02-01T07:15:26;18.80;;;4.47;;
13989;SDS011;7069;52.528;13.316;2023-02-01T07:17:54;11.27;;;4.40;;
13989;SDS011;7069;52.528;13.316;2023-02-01T07:20:20;6.77;;;2.63;;
13989;SDS011;7069;52.528;13.316;2023-02-01T07:22:48;15.30;;;4.00;;
13989;SDS011;7069;52.528;13.316;2023-02-01T07:25:15;11.00;;;3.80;;
13989;SDS011;7069;52.528;13.316;2023-02-01T07:27:41;5.87;;;3.20;;
13989;SDS011;7069;52.528;13.316;2023-02-01T07:30:08;11.80;;;2.90;;
13989;SDS011;7069;52.528;13.316;2023-02-01T07:32:35;12.57;;;3.80;;
13989;SDS011;7069;52.528;13.316;2023-02-01T07:35:01;19.00;;;5.03;;
13989;SDS011;7069;52.528;13.316;2023-02-01T07:37:28;17.10;;;3.87;;
13989;SDS011;7069;52.528;13.316;2023-02-01T07:39:56;18.47;;;4.73;;
13989;SDS011;7069;52.528;13.316;2023-02-01T07:42:22;11.23;;;3.80;;
13989;SDS011;7069;52.528;13.316;2023-02-01T07:44:49;6.83;;;3.17;;
13989;SDS011;7069;52.528;13.316;2023-02-01T07:47:15;11.07;;;4.03;;
13989;SDS011;7069;52.528;13.316;2023-02-01T07:49:42;11.07;;;3.70;;
13989;SDS011;7069;52.528;13.316;2023-02-01T07:52:08;18.80;;;3.30;;
13989;SDS011;7069;52.528;13.316;2023-02-01T07:54:36;11.67;;;3.87;;
13989;SDS011;7069;52.528;13.316;2023-02-01T07:57:04;11.13;;;3.47;;
13989;SDS011;7069;52.528;13.316;2023-02-01T07:59:30;13.70;;;5.67;;
13989;SDS011;7069;52.528;13.316;2023-02-01T08:01:57;15.50;;;5.00;;
13989;SDS011;7069;52.528;13.316;2023-02-01T08:04:22;12.30;;;4.10;;
13989;SDS011;7069;52.528;13.316;2023-02-01T08:06:54;18.13;;;3.97;;
13989;SDS011;7069;52.528;13.316;2023-02-01T08:09:20;14.03;;;4.70;;
13989;SDS011;7069;52.528;13.316;2023-02-01T08:11:47;9.03;;;4.20;;
13989;SDS011;7069;52.528;13.316;2023-02-01T08:14:15;20.77;;;4.93;;
13989;SDS011;7069;52.528;13.316;2023-02-01T08:16:41;11.73;;;4.37;;
13989;SDS011;7069;52.528;13.316;2023-02-01T08:19:08;16.63;;;5.00;;
13989;SDS011;7069;52.528;13.316;2023-02-01T08:21:34;8.73;;;4.20;;
13989;SDS011;7069;52.528;13.316;2023-02-01T08:24:04;9.90;;;3.90;;
13989;SDS011;7069;52.528;13.316;2023-02-01T08:26:31;11.43;;;4.27;;
13989;SDS011;7069;52.528;13.316;2023-02-01T08:28:58;8.27;;;3.90;;
13989;SDS011;7069;52.528;13.316;2023-02-01T08:31:27;10.43;;;4.10;;
13989;SDS011;7069;52.528;13.316;2023-02-01T08:33:54;13.13;;;4.83;;
13989;SDS011;7069;52.528;13.316;2023-02-01T08:36:21;11.43;;;4.47;;
13989;SDS011;7069;52.528;13.316;2023-02-01T08:38:48;7.20;;;4.23;;
13989;SDS011;7069;52.528;13.316;2023-02-01T08:41:17;10.07;;;4.13;;
13989;SDS011;7069;52.528;13.316;2023-02-01T08:43:44;9.70;;;4.50;;
13989;SDS011;7069;52.528;13.316;2023-02-01T08:46:11;9.23;;;4.40;;
13989;SDS011;7069;52.528;13.316;2023-02-01T08:48:39;8.00;;;4.57;;
13989;SDS011;7069;52.528;13.316;2023-02-01T08:51:07;10.60;;;4.87;;
13989;SDS011;7069;52.528;13.316;2023-02-01T08:53:34;7.00;;;4.30;;
13989;SDS011;7069;52.528;13.316;2023-02-01T08:56:01;8.33;;;4.33;;
13989;SDS011;7069;52.528;13.316;2023-02-01T08:58:27;10.10;;;5.20;;
13989;SDS011;7069;52.528;13.316;2023-02-01T09:00:54;7.00;;;4.13;;
13989;SDS011;7069;52.528;13.316;2023-02-01T09:03:21;11.30;;;3.53;;
13989;SDS011;7069;52.528;13.316;2023-02-01T09:05:49;7.67;;;5.17;;
13989;SDS011;7069;52.528;13.316;2023-02-01T09:08:16;7.17;;;3.50;;
13989;SDS011;7069;52.528;13.316;2023-02-01T09:10:43;8.40;;;3.67;;
13989;SDS011;7069;52.528;13.316;2023-02-01T09:13:10;7.93;;;3.00;;
13989;SDS011;7069;52.528;13.316;2023-02-01T09:15:37;7.13;;;3.53;;
13989;SDS011;7069;52.528;13.316;2023-02-01T09:18:03;7.90;;;3.07;;
13989;SDS011;7069;52.528;13.316;2023-02-01T09:20:30;12.13;;;3.70;;
13989;SDS011;7069;52.528;13.316;2023-02-01T09:22:58;4.40;;;2.57;;
13989;SDS011;7069;52.528;13.316;2023-02-01T09:25:25;3.60;;;2.13;;
13989;SDS011;7069;52.528;13.316;2023-02-01T09:27:51;7.23;;;3.23;;
13989;SDS011;7069;52.528;13.316;2023-02-01T09:30:18;4.87;;;2.23;;
13989;SDS011;7069;52.528;13.316;2023-02-01T09:32:44;4.90;;;2.50;;
13989;SDS011;7069;52.528;13.316;2023-02-01T09:35:11;9.47;;;3.33;;
13989;SDS011;7069;52.528;13.316;2023-02-01T09:37:38;5.53;;;2.07;;
13989;SDS011;7069;52.528;13.316;2023-02-01T09:40:06;4.77;;;2.23;;
13989;SDS011;7069;52.528;13.316;2023-02-01T09:42:46;4.80;;;2.40;;
13989;SDS011;7069;52.528;13.316;2023-02-01T09:45:16;7.60;;;3.00;;
13989;SDS011;7069;52.528;13.316;2023-02-01T09:47:45;5.40;;;1.70;;
13989;SDS011;7069;52.528;13.316;2023-02-01T09:50:14;6.67;;;3.40;;
13989;SDS011;7069;52.528;13.316;2023-02-01T09:52:43;3.80;;;2.23;;
13989;SDS011;7069;52.528;13.316;2023-02-01T09:55:12;6.33;;;2.80;;
13989;SDS011;7069;52.528;13.316;2023-02-01T09:57:40;6.77;;;2.60;;
13989;SDS011;7069;52.528;13.316;2023-02-01T10:00:13;3.87;;;1.60;;
13989;SDS011;7069;52.528;13.316;2023-02-01T10:02:41;6.40;;;1.80;;
13989;SDS011;7069;52.528;13.316;2023-02-01T10:05:11;2.80;;;1.30;;
13989;SDS011;7069;52.528;13.316;2023-02-01T10:07:40;2.70;;;2.03;;
13989;SDS011;7069;52.528;13.316;2023-02-01T10:10:09;8.77;;;2.23;;
13989;SDS011;7069;52.528;13.316;2023-02-01T10:15:26;3.93;;;1.60;;
13989;SDS011;7069;52.528;13.316;2023-02-01T10:18:00;5.83;;;2.57;;
13989;SDS011;7069;52.528;13.316;2023-02-01T10:20:29;5.20;;;2.40;;
13989;SDS011;7069;52.528;13.316;2023-02-01T10:22:59;5.07;;;2.33;;
13989;SDS011;7069;52.528;13.316;2023-02-01T10:25:31;5.33;;;2.20;;
13989;SDS011;7069;52.528;13.316;2023-02-01T10:28:00;3.30;;;2.23;;
13989;SDS011;7069;52.528;13.316;2023-02-01T10:30:29;4.63;;;2.03;;
13989;SDS011;7069;52.528;13.316;2023-02-01T10:32:59;4.43;;;1.97;;
13989;SDS011;7069;52.528;13.316;2023-02-01T10:35:29;9.53;;;2.90;;
13989;SDS011;7069;52.528;13.316;2023-02-01T10:37:58;4.03;;;1.90;;
13989;SDS011;7069;52.528;13.316;2023-02-01T10:40:26;4.43;;;2.37;;
13989;SDS011;7069;52.528;13.316;2023-02-01T10:42:54;2.83;;;2.23;;
13989;SDS011;7069;52.528;13.316;2023-02-01T10:45:22;4.43;;;1.40;;
13989;SDS011;7069;52.528;13.316;2023-02-01T10:47:52;3.63;;;1.77;;
13989;SDS011;7069;52.528;13.316;2023-02-01T10:50:22;3.77;;;1.80;;
13989;SDS011;7069;52.528;13.316;2023-02-01T10:52:52;5.23;;;1.50;;
13989;SDS011;7069;52.528;13.316;2023-02-01T10:55:25;2.73;;;1.80;;
13989;SDS011;7069;52.528;13.316;2023-02-01T10:57:55;7.80;;;2.50;;
13989;SDS011;7069;52.528;13.316;2023-02-01T11:00:21;9.90;;;2.50;;
13989;SDS011;7069;52.528;13.316;2023-02-01T11:02:48;4.30;;;1.63;;
13989;SDS011;7069;52.528;13.316;2023-02-01T11:05:16;4.90;;;1.93;;
13989;SDS011;7069;52.528;13.316;2023-02-01T11:07:46;1.90;;;1.40;;
13989;SDS011;7069;52.528;13.316;2023-02-01T11:10:33;9.67;;;1.80;;
13989;SDS011;7069;52.528;13.316;2023-02-01T11:13:01;4.40;;;2.47;;
13989;SDS011;7069;52.528;13.316;2023-02-01T11:15:28;12.57;;;2.73;;
13989;SDS011;7069;52.528;13.316;2023-02-01T11:17:54;7.33;;;2.13;;
13989;SDS011;7069;52.528;13.316;2023-02-01T11:20:26;5.33;;;1.93;;
13989;SDS011;7069;52.528;13.316;2023-02-01T11:23:00;7.50;;;2.70;;
13989;SDS011;7069;52.528;13.316;2023-02-01T11:25:27;7.40;;;2.37;;
13989;SDS011;7069;52.528;13.316;2023-02-01T11:27:54;5.77;;;3.10;;
13989;SDS011;7069;52.528;13.316;2023-02-01T11:30:23;7.50;;;2.10;;
13989;SDS011;7069;52.528;13.316;2023-02-01T11:32:51;12.50;;;3.00;;
13989;SDS011;7069;52.528;13.316;2023-02-01T11:35:18;6.53;;;2.07;;
13989;SDS011;7069;52.528;13.316;2023-02-01T11:37:48;9.13;;;2.43;;
13989;SDS011;7069;52.528;13.316;2023-02-01T11:40:23;6.27;;;2.80;;
13989;SDS011;7069;52.528;13.316;2023-02-01T11:42:55;9.73;;;2.30;;
13989;SDS011;7069;52.528;13.316;2023-02-01T11:45:24;13.93;;;2.47;;
13989;SDS011;7069;52.528;13.316;2023-02-01T11:47:51;7.90;;;2.73;;
13989;SDS011;7069;52.528;13.316;2023-02-01T11:50:19;11.70;;;2.60;;
13989;SDS011;7069;52.528;13.316;2023-02-01T11:52:55;6.23;;;2.93;;
13989;SDS011;7069;52.528;13.316;2023-02-01T11:55:35;5.57;;;3.33;;
13989;SDS011;7069;52.528;13.316;2023-02-01T11:58:06;9.87;;;2.43;;
13989;SDS011;7069;52.528;13.316;2023-02-01T12:00:44;5.97;;;1.97;;
13989;SDS011;7069;52.528;13.316;2023-02-01T12:03:28;7.40;;;2.07;;
13989;SDS011;7069;52.528;13.316;2023-02-01T12:05:57;6.30;;;2.03;;
13989;SDS011;7069;52.528;13.316;2023-02-01T12:08:33;10.27;;;2.13;;
13989;SDS011;7069;52.528;13.316;2023-02-01T12:11:06;8.77;;;2.40;;
13989;SDS011;7069;52.528;13.316;2023-02-01T12:13:38;5.00;;;1.57;;
13989;SDS011;7069;52.528;13.316;2023-02-01T12:16:11;9.33;;;2.47;;
13989;SDS011;7069;52.528;13.316;2023-02-01T12:18:49;5.53;;;1.63;;
13989;SDS011;7069;52.528;13.316;2023-02-01T12:21:28;5.83;;;1.90;;
13989;SDS011;7069;52.528;13.316;2023-02-01T12:24:18;6.37;;;2.17;;
13989;SDS011;7069;52.528;13.316;2023-02-01T12:26:56;2.83;;;1.67;;
13989;SDS011;7069;52.528;13.316;2023-02-01T12:29:31;6.50;;;1.93;;
13989;SDS011;7069;52.528;13.316;2023-02-01T12:32:11;5.23;;;1.87;;
13989;SDS011;7069;52.528;13.316;2023-02-01T12:34:53;8.50;;;2.27;;
13989;SDS011;7069;52.528;13.316;2023-02-01T12:37:25;7.43;;;2.17;;
13989;SDS011;7069;52.528;13.316;2023-02-01T12:39:56;5.30;;;2.53;;
13989;SDS011;7069;52.528;13.316;2023-02-01T12:42:24;6.20;;;1.83;;
13989;SDS011;7069;52.528;13.316;2023-02-01T12:44:54;9.40;;;3.00;;
13989;SDS011;7069;52.528;13.316;2023-02-01T12:47:22;9.30;;;2.97;;
13989;SDS011;7069;52.528;13.316;2023-02-01T12:49:53;11.90;;;3.27;;
13989;SDS011;7069;52.528;13.316;2023-02-01T12:52:23;4.10;;;2.07;;
13989;SDS011;7069;52.528;13.316;2023-02-01T12:54:53;4.43;;;1.80;;
13989;SDS011;7069;52.528;13.316;2023-02-01T12:57:25;6.63;;;3.00;;
13989;SDS011;7069;52.528;13.316;2023-02-01T12:59:54;7.43;;;3.03;;
13989;SDS011;7069;52.528;13.316;2023-02-01T13:02:22;4.40;;;2.30;;
13989;SDS011;7069;52.528;13.316;2023-02-01T13:04:55;7.50;;;1.60;;
13989;SDS011;7069;52.528;13.316;2023-02-01T13:07:24;7.40;;;1.90;;
13989;SDS011;7069;52.528;13.316;2023-02-01T13:09:53;9.63;;;2.60;;
13989;SDS011;7069;52.528;13.316;2023-02-01T13:12:24;5.10;;;2.00;;
13989;SDS011;7069;52.528;13.316;2023-02-01T13:14:52;6.43;;;2.10;;
13989;SDS011;7069;52.528;13.316;2023-02-01T13:17:21;2.63;;;1.57;;
13989;SDS011;7069;52.528;13.316;2023-02-01T13:19:50;3.43;;;1.80;;
13989;SDS011;7069;52.528;13.316;2023-02-01T13:22:19;7.40;;;1.53;;
13989;SDS011;7069;52.528;13.316;2023-02-01T13:24:47;6.43;;;1.87;;
13989;SDS011;7069;52.528;13.316;2023-02-01T13:27:14;4.80;;;1.90;;
13989;SDS011;7069;52.528;13.316;2023-02-01T13:29:44;8.47;;;2.57;;
13989;SDS011;7069;52.528;13.316;2023-02-01T13:32:16;3.23;;;1.63;;
13989;SDS011;7069;52.528;13.316;2023-02-01T13:34:51;7.97;;;1.93;;
13989;SDS011;7069;52.528;13.316;2023-02-01T13:37:25;8.97;;;1.80;;
13989;SDS011;7069;52.528;13.316;2023-02-01T13:40:17;8.53;;;2.20;;
13989;SDS011;7069;52.528;13.316;2023-02-01T13:42:46;3.90;;;1.73;;
13989;SDS011;7069;52.528;13.316;2023-02-01T13:45:15;7.63;;;2.00;;
13989;SDS011;7069;52.528;13.316;2023-02-01T13:47:43;8.60;;;2.30;;
13989;SDS011;7069;52.528;13.316;2023-02-01T13:50:12;6.27;;;2.33;;
13989;SDS011;7069;52.528;13.316;2023-02-01T13:52:40;10.80;;;3.00;;
13989;SDS011;7069;52.528;13.316;2023-02-01T13:55:28;8.27;;;2.37;;
13989;SDS011;7069;52.528;13.316;2023-02-01T13:57:59;9.60;;;2.77;;
13989;SDS011;7069;52.528;13.316;2023-02-01T14:00:28;6.23;;;3.07;;
13989;SDS011;7069;52.528;13.316;2023-02-01T14:03:07;5.90;;;2.60;;
13989;SDS011;7069;52.528;13.316;2023-02-01T14:08:22;7.67;;;2.27;;
13989;SDS011;7069;52.528;13.316;2023-02-01T14:10:48;8.40;;;3.10;;
13989;SDS011;7069;52.528;13.316;2023-02-01T14:13:22;7.83;;;1.90;;
13989;SDS011;7069;52.528;13.316;2023-02-01T14:18:58;9.33;;;3.23;;
13989;SDS011;7069;52.528;13.316;2023-02-01T14:21:26;4.77;;;2.20;;
13989;SDS011;7069;52.528;13.316;2023-02-01T14:23:58;11.70;;;3.83;;
13989;SDS011;7069;52.528;13.316;2023-02-01T14:26:25;11.30;;;3.77;;
13989;SDS011;7069;52.528;13.316;2023-02-01T14:28:53;15.17;;;3.90;;
13989;SDS011;7069;52.528;13.316;2023-02-01T14:34:11;14.63;;;3.47;;
13989;SDS011;7069;52.528;13.316;2023-02-01T14:36:40;10.83;;;2.57;;
13989;SDS011;7069;52.528;13.316;2023-02-01T14:39:18;6.90;;;3.17;;
13989;SDS011;7069;52.528;13.316;2023-02-01T14:41:46;11.70;;;4.47;;
13989;SDS011;7069;52.528;13.316;2023-02-01T14:44:21;7.10;;;3.33;;
13989;SDS011;7069;52.528;13.316;2023-02-01T14:47:08;11.97;;;3.53;;
13989;SDS011;7069;52.528;13.316;2023-02-01T14:49:37;13.30;;;3.70;;
13989;SDS011;7069;52.528;13.316;2023-02-01T14:52:05;7.87;;;3.77;;
13989;SDS011;7069;52.528;13.316;2023-02-01T14:54:32;6.93;;;2.60;;
13989;SDS011;7069;52.528;13.316;2023-02-01T14:56:59;12.47;;;3.20;;
13989;SDS011;7069;52.528;13.316;2023-02-01T14:59:25;12.27;;;3.80;;
13989;SDS011;7069;52.528;13.316;2023-02-01T15:01:58;10.90;;;3.03;;
13989;SDS011;7069;52.528;13.316;2023-02-01T15:04:26;10.20;;;2.50;;
13989;SDS011;7069;52.528;13.316;2023-02-01T15:06:54;10.00;;;2.93;;